sensor_id;sensor_type;location;lat;lon;timestamp;pressure;altitude;pressure_sealevel;temperature;humidity
34185;BME280;20454;48.100;11.776;2023-02-13T00:01:15;97273.63;;;2.41;100.00
34185;BME280;20454;48.100;11.776;2023-02-13T00:03:41;97261.84;;;2.34;100.00
34185;BME280;20454;48.100;11.776;2023-02-13T00:06:07;97262.72;;;2.34;100.00
34185;BME280;20454;48.100;11.776;2023-02-13T00:08:33;97277.50;;;2.33;100.00
34185;BME280;20454;48.100;11.776;2023-02-13T00:10:58;97266.75;;;2.32;100.00
34185;BME280;20454;48.100;11.776;2023-02-13T00:13:24;97264.38;;;2.35;100.00
34185;BME280;20454;48.100;11.776;2023-02-13T00:15:57;97265.28;;;2.29;100.00
34185;BME280;20454;48.100;11.776;2023-02-13T00:18:24;97259.19;;;2.27;100.00
34185;BME280;20454;48.100;11.776;2023-02-13T00:21:00;97257.06;;;2.29;100.00
34185;BME280;20454;48.100;11.776;2023-02-13T00:23:28;97257.13;;;2.41;100.00
34185;BME280;20454;48.100;11.776;2023-02-13T00:25:53;97253.03;;;2.32;100.00
34185;BME280;20454;48.100;11.776;2023-02-13T00:28:19;97251.56;;;2.29;100.00
34185;BME280;20454;48.100;11.776;2023-02-13T00:30:45;97249.66;;;2.30;100.00
34185;BME280;20454;48.100;11.776;2023-02-13T00:33:10;97238.06;;;2.28;100.00
34185;BME280;20454;48.100;11.776;2023-02-13T00:35:36;97245.84;;;2.31;100.00
34185;BME280;20454;48.100;11.776;2023-02-13T00:38:02;97240.38;;;2.31;100.00
34185;BME280;20454;48.100;11.776;2023-02-13T00:40:27;97229.91;;;2.21;100.00
34185;BME280;20454;48.100;11.776;2023-02-13T00:42:53;97238.69;;;2.30;100.00
34185;BME280;20454;48.100;11.776;2023-02-13T00:45:18;97241.44;;;2.30;100.00
34185;BME280;20454;48.100;11.776;2023-02-13T00:47:44;97231.28;;;2.30;100.00
34185;BME280;20454;48.100;11.776;2023-02-13T00:50:10;97247.69;;;2.37;100.00
34185;BME280;20454;48.100;11.776;2023-02-13T00:52:35;97242.81;;;2.39;100.00
34185;BME280;20454;48.100;11.776;2023-02-13T00:55:01;97243.66;;;2.39;100.00
34185;BME280;20454;48.100;11.776;2023-02-13T00:57:27;97234.56;;;2.39;100.00
34185;BME280;20454;48.100;11.776;2023-02-13T00:59:53;97229.66;;;2.41;100.00
34185;BME280;20454;48.100;11.776;2023-02-13T01:02:19;97234.56;;;2.39;100.00
34185;BME280;20454;48.100;11.776;2023-02-13T01:04:44;97230.16;;;2.38;100.00
34185;BME280;20454;48.100;11.776;2023-02-13T01:07:10;97241.13;;;2.38;100.00
34185;BME280;20454;48.100;11.776;2023-02-13T01:09:36;97239.19;;;2.38;100.00
34185;BME280;20454;48.100;11.776;2023-02-13T01:12:01;97239.19;;;2.38;100.00
34185;BME280;20454;48.100;11.776;2023-02-13T01:14:27;97238.97;;;2.40;100.00
34185;BME280;20454;48.100;11.776;2023-02-13T01:16:53;97236.25;;;2.40;100.00
34185;BME280;20454;48.100;11.776;2023-02-13T01:19:18;97245.34;;;2.40;100.00
34185;BME280;20454;48.100;11.776;2023-02-13T01:21:44;97232.66;;;2.39;100.00
34185;BME280;20454;48.100;11.776;2023-02-13T01:24:10;97236.63;;;2.43;100.00
34185;BME280;20454;48.100;11.776;2023-02-13T01:26:36;97231.34;;;2.42;100.00
34185;BME280;20454;48.100;11.776;2023-02-13T01:29:01;97236.03;;;2.41;100.00
34185;BME280;20454;48.100;11.776;2023-02-13T01:31:27;97237.91;;;2.41;100.00
34185;BME280;20454;48.100;11.776;2023-02-13T01:33:56;97231.81;;;2.39;100.00
34185;BME280;20454;48.100;11.776;2023-02-13T01:36:23;97228.47;;;2.37;100.00
34185;BME280;20454;48.100;11.776;2023-02-13T01:38:53;97221.16;;;2.31;100.00
34185;BME280;20454;48.100;11.776;2023-02-13T01:41:19;97226.47;;;2.26;100.00
34185;BME280;20454;48.100;11.776;2023-02-13T01:43:55;97229.31;;;2.19;100.00
34185;BME280;20454;48.100;11.776;2023-02-13T01:49:09;97235.47;;;2.15;100.00
34185;BME280;20454;48.100;11.776;2023-02-13T01:51:35;97239.28;;;2.14;100.00
34185;BME280;20454;48.100;11.776;2023-02-13T01:54:45;97233.34;;;2.17;100.00
34185;BME280;20454;48.100;11.776;2023-02-13T01:56:58;97225.31;;;2.15;100.00
34185;BME280;20454;48.100;11.776;2023-02-13T01:59:33;97222.78;;;2.14;100.00
34185;BME280;20454;48.100;11.776;2023-02-13T02:02:02;97229.34;;;2.13;100.00
34185;BME280;20454;48.100;11.776;2023-02-13T02:04:30;97225.53;;;2.14;100.00
34185;BME280;20454;48.100;11.776;2023-02-13T02:07:03;97223.06;;;2.12;100.00
34185;BME280;20454;48.100;11.776;2023-02-13T02:09:34;97220.31;;;2.12;100.00
34185;BME280;20454;48.100;11.776;2023-02-13T02:12:21;97226.63;;;2.13;100.00
34185;BME280;20454;48.100;11.776;2023-02-13T02:14:48;97223.88;;;2.13;100.00
34185;BME280;20454;48.100;11.776;2023-02-13T02:17:13;97223.88;;;2.13;100.00
34185;BME280;20454;48.100;11.776;2023-02-13T02:28:38;97236.38;;;2.09;100.00
34185;BME280;20454;48.100;11.776;2023-02-13T02:37:23;97239.94;;;1.91;100.00
34185;BME280;20454;48.100;11.776;2023-02-13T02:42:42;97239.78;;;1.86;100.00
34185;BME280;20454;48.100;11.776;2023-02-13T02:45:38;97251.59;;;1.87;100.00
34185;BME280;20454;48.100;11.776;2023-02-13T02:48:52;97255.16;;;1.87;100.00
34185;BME280;20454;48.100;11.776;2023-02-13T02:51:20;97251.81;;;1.85;100.00
34185;BME280;20454;48.100;11.776;2023-02-13T02:54:16;97246.31;;;1.85;100.00
34185;BME280;20454;48.100;11.776;2023-02-13T02:57:12;97251.59;;;1.87;100.00
34185;BME280;20454;48.100;11.776;2023-02-13T02:59:39;97241.44;;;1.87;100.00
34185;BME280;20454;48.100;11.776;2023-02-13T05:01:36;97242.06;;;1.40;100.00
34185;BME280;20454;48.100;11.776;2023-02-13T05:04:02;97238.50;;;1.40;100.00
34185;BME280;20454;48.100;11.776;2023-02-13T05:06:28;97225.88;;;1.32;100.00
34185;BME280;20454;48.100;11.776;2023-02-13T05:08:53;97245.47;;;1.36;100.00
34185;BME280;20454;48.100;11.776;2023-02-13T05:11:19;97242.72;;;1.36;100.00
34185;BME280;20454;48.100;11.776;2023-02-13T05:13:45;97242.72;;;1.36;100.00
34185;BME280;20454;48.100;11.776;2023-02-13T05:16:10;97243.78;;;1.35;100.00
34185;BME280;20454;48.100;11.776;2023-02-13T05:18:36;97242.94;;;1.34;100.00
34185;BME280;20454;48.100;11.776;2023-02-13T05:21:02;97242.56;;;1.31;100.00
34185;BME280;20454;48.100;11.776;2023-02-13T05:23:46;97245.69;;;1.34;100.00
34185;BME280;20454;48.100;11.776;2023-02-13T05:26:11;97236.47;;;1.29;100.00
34185;BME280;20454;48.100;11.776;2023-02-13T05:28:37;97250.75;;;1.37;100.00
34185;BME280;20454;48.100;11.776;2023-02-13T05:31:21;97253.28;;;1.39;100.00
34185;BME280;20454;48.100;11.776;2023-02-13T05:33:47;97257.91;;;1.38;100.00
34185;BME280;20454;48.100;11.776;2023-02-13T05:36:12;97261.25;;;1.40;100.00
34185;BME280;20454;48.100;11.776;2023-02-13T05:38:38;97248.44;;;1.34;100.00
34185;BME280;20454;48.100;11.776;2023-02-13T05:41:05;97269.88;;;1.44;100.00
34185;BME280;20454;48.100;11.776;2023-02-13T05:43:31;97255.63;;;1.35;100.00
34185;BME280;20454;48.100;11.776;2023-02-13T07:00:58;97300.44;;;1.16;100.00
34185;BME280;20454;48.100;11.776;2023-02-13T07:03:24;97312.63;;;1.20;100.00
34185;BME280;20454;48.100;11.776;2023-02-13T07:05:50;97313.47;;;1.21;100.00
34185;BME280;20454;48.100;11.776;2023-02-13T07:08:18;97301.25;;;1.17;100.00
34185;BME280;20454;48.100;11.776;2023-02-13T07:10:44;97323.81;;;1.19;100.00
34185;BME280;20454;48.100;11.776;2023-02-13T07:13:10;97319.16;;;1.19;100.00
34185;BME280;20454;48.100;11.776;2023-02-13T07:15:36;97315.81;;;1.17;100.00
34185;BME280;20454;48.100;11.776;2023-02-13T07:18:03;97323.63;;;1.14;100.00
34185;BME280;20454;48.100;11.776;2023-02-13T07:20:29;97324.50;;;1.08;100.00
34185;BME280;20454;48.100;11.776;2023-02-13T07:23:03;97329.31;;;1.12;100.00
34185;BME280;20454;48.100;11.776;2023-02-13T07:25:29;97337.78;;;1.11;100.00
34185;BME280;20454;48.100;11.776;2023-02-13T07:28:00;97338.41;;;1.13;100.00
34185;BME280;20454;48.100;11.776;2023-02-13T07:30:26;97348.91;;;1.16;100.00
34185;BME280;20454;48.100;11.776;2023-02-13T07:32:52;97355.44;;;1.21;100.00
34185;BME280;20454;48.100;11.776;2023-02-13T07:35:17;97350.97;;;1.27;100.00
34185;BME280;20454;48.100;11.776;2023-02-13T07:37:43;97364.69;;;1.27;100.00
34185;BME280;20454;48.100;11.776;2023-02-13T07:40:09;97365.50;;;1.27;100.00
34185;BME280;20454;48.100;11.776;2023-02-13T07:42:35;97356.06;;;1.23;100.00
34185;BME280;20454;48.100;11.776;2023-02-13T07:45:00;97354.31;;;1.29;100.00
34185;BME280;20454;48.100;11.776;2023-02-13T07:47:29;97365.69;;;1.32;100.00
34185;BME280;20454;48.100;11.776;2023-02-13T07:49:55;97368.84;;;1.36;100.00
34185;BME280;20454;48.100;11.776;2023-02-13T07:52:21;97378.75;;;1.37;100.00
34185;BME280;20454;48.100;11.776;2023-02-13T07:54:46;97379.53;;;1.44;100.00
34185;BME280;20454;48.100;11.776;2023-02-13T07:57:15;97385.03;;;1.44;100.00
34185;BME280;20454;48.100;11.776;2023-02-13T07:59:41;97378.28;;;1.46;100.00
34185;BME280;20454;48.100;11.776;2023-02-13T08:02:12;97378.47;;;1.45;100.00
34185;BME280;20454;48.100;11.776;2023-02-13T08:04:39;97386.28;;;1.48;100.00
34185;BME280;20454;48.100;11.776;2023-02-13T08:07:04;97379.94;;;1.47;100.00
34185;BME280;20454;48.100;11.776;2023-02-13T08:09:30;97379.13;;;1.47;100.00
34185;BME280;20454;48.100;11.776;2023-02-13T08:12:24;97382.06;;;1.45;100.00
34185;BME280;20454;48.100;11.776;2023-02-13T08:14:52;97376.19;;;1.42;100.00
34185;BME280;20454;48.100;11.776;2023-02-13T08:17:17;97390.25;;;1.52;100.00
34185;BME280;20454;48.100;11.776;2023-02-13T08:19:43;97373.63;;;1.47;100.00
34185;BME280;20454;48.100;11.776;2023-02-13T08:22:09;97375.91;;;1.56;100.00
34185;BME280;20454;48.100;11.776;2023-02-13T08:24:34;97379.06;;;1.60;100.00
34185;BME280;20454;48.100;11.776;2023-02-13T08:27:00;97372.91;;;1.58;100.00
34185;BME280;20454;48.100;11.776;2023-02-13T08:29:26;97373.78;;;1.58;100.00
34185;BME280;20454;48.100;11.776;2023-02-13T08:31:51;97377.53;;;1.64;100.00
34185;BME280;20454;48.100;11.776;2023-02-13T08:34:17;97373.50;;;1.66;100.00
34185;BME280;20454;48.100;11.776;2023-02-13T08:36:43;97365.50;;;1.65;100.00
34185;BME280;20454;48.100;11.776;2023-02-13T08:39:09;97375.56;;;1.77;100.00
34185;BME280;20454;48.100;11.776;2023-02-13T08:41:35;97368.34;;;1.83;100.00
34185;BME280;20454;48.100;11.776;2023-02-13T08:44:00;97375.47;;;1.90;100.00
34185;BME280;20454;48.100;11.776;2023-02-13T08:46:26;97375.88;;;1.94;100.00
34185;BME280;20454;48.100;11.776;2023-02-13T08:48:52;97373.66;;;2.02;100.00
34185;BME280;20454;48.100;11.776;2023-02-13T08:51:17;97380.78;;;2.10;100.00
34185;BME280;20454;48.100;11.776;2023-02-13T08:53:43;97395.72;;;2.14;100.00
34185;BME280;20454;48.100;11.776;2023-02-13T08:56:09;97378.66;;;2.12;100.00
34185;BME280;20454;48.100;11.776;2023-02-13T08:58:35;97385.59;;;2.14;100.00
34185;BME280;20454;48.100;11.776;2023-02-13T09:01:04;97373.13;;;2.18;100.00
34185;BME280;20454;48.100;11.776;2023-02-13T09:03:30;97381.34;;;2.18;100.00
34185;BME280;20454;48.100;11.776;2023-02-13T09:05:58;97377.75;;;2.18;100.00
34185;BME280;20454;48.100;11.776;2023-02-13T09:08:24;97368.28;;;2.14;100.00
34185;BME280;20454;48.100;11.776;2023-02-13T09:10:58;97378.66;;;2.12;100.00
34185;BME280;20454;48.100;11.776;2023-02-13T09:13:24;97387.06;;;2.17;100.00
34185;BME280;20454;48.100;11.776;2023-02-13T09:15:49;97387.25;;;2.22;100.00
34185;BME280;20454;48.100;11.776;2023-02-13T09:18:15;97381.91;;;2.27;100.00
34185;BME280;20454;48.100;11.776;2023-02-13T09:20:41;97380.22;;;2.26;100.00
34185;BME280;20454;48.100;11.776;2023-02-13T09:23:06;97392.00;;;2.33;100.00
34185;BME280;20454;48.100;11.776;2023-02-13T09:25:32;97388.34;;;2.39;100.00
34185;BME280;20454;48.100;11.776;2023-02-13T09:27:58;97393.16;;;2.43;100.00
34185;BME280;20454;48.100;11.776;2023-02-13T09:30:24;97390.59;;;2.48;99.25
34185;BME280;20454;48.100;11.776;2023-02-13T09:32:50;97390.81;;;2.47;99.02
34185;BME280;20454;48.100;11.776;2023-02-13T09:35:17;97390.81;;;2.47;98.65
34185;BME280;20454;48.100;11.776;2023-02-13T09:37:43;97383.03;;;2.44;99.26
34185;BME280;20454;48.100;11.776;2023-02-13T09:40:44;97381.28;;;2.49;98.91
34185;BME280;20454;48.100;11.776;2023-02-13T09:43:32;97385.47;;;2.52;98.71
34185;BME280;20454;48.100;11.776;2023-02-13T09:46:04;97386.72;;;2.56;98.97
34185;BME280;20454;48.100;11.776;2023-02-13T09:48:35;97397.72;;;2.56;98.61
34185;BME280;20454;48.100;11.776;2023-02-13T09:51:02;97386.47;;;2.57;98.32
34185;BME280;20454;48.100;11.776;2023-02-13T09:53:28;97391.16;;;2.57;98.81
34185;BME280;20454;48.100;11.776;2023-02-13T09:58:47;97389.56;;;2.67;99.04
34185;BME280;20454;48.100;11.776;2023-02-13T10:07:22;97398.63;;;2.68;98.68
34185;BME280;20454;48.100;11.776;2023-02-13T10:18:08;97394.84;;;2.87;97.61
34185;BME280;20454;48.100;11.776;2023-02-13T10:20:38;97393.16;;;2.86;96.83
34185;BME280;20454;48.100;11.776;2023-02-13T10:23:26;97400.72;;;2.90;96.59
34185;BME280;20454;48.100;11.776;2023-02-13T10:31:05;97389.13;;;2.88;96.44
34185;BME280;20454;48.100;11.776;2023-02-13T10:33:48;97392.84;;;2.94;96.77
34185;BME280;20454;48.100;11.776;2023-02-13T10:41:47;97389.44;;;3.16;96.18
34185;BME280;20454;48.100;11.776;2023-02-13T10:50:21;97378.34;;;3.23;96.28
34185;BME280;20454;48.100;11.776;2023-02-13T10:58:18;97362.28;;;3.38;95.78
34185;BME280;20454;48.100;11.776;2023-02-13T11:03:23;97360.03;;;3.46;95.09
34185;BME280;20454;48.100;11.776;2023-02-13T11:05:50;97357.66;;;3.50;95.09
34185;BME280;20454;48.100;11.776;2023-02-13T11:10:49;97360.91;;;3.47;93.78
34185;BME280;20454;48.100;11.776;2023-02-13T11:13:26;97345.47;;;3.46;94.21
34185;BME280;20454;48.100;11.776;2023-02-13T11:16:03;97350.00;;;3.52;94.63
34185;BME280;20454;48.100;11.776;2023-02-13T11:18:38;97344.88;;;3.55;94.48
34185;BME280;20454;48.100;11.776;2023-02-13T11:21:15;97343.34;;;3.59;94.50
34185;BME280;20454;48.100;11.776;2023-02-13T11:23:44;97340.75;;;3.64;93.31
34185;BME280;20454;48.100;11.776;2023-02-13T11:26:43;97337.53;;;3.67;93.43
34185;BME280;20454;48.100;11.776;2023-02-13T11:29:36;97344.34;;;3.76;92.79
34185;BME280;20454;48.100;11.776;2023-02-13T11:34:39;97331.81;;;3.80;92.56
34185;BME280;20454;48.100;11.776;2023-02-13T11:37:30;97339.72;;;3.88;91.95
34185;BME280;20454;48.100;11.776;2023-02-13T11:39:58;97343.56;;;3.87;91.72
34185;BME280;20454;48.100;11.776;2023-02-13T11:45:05;97337.91;;;3.82;91.91
34185;BME280;20454;48.100;11.776;2023-02-13T11:47:41;97338.56;;;3.84;91.56
34185;BME280;20454;48.100;11.776;2023-02-13T11:55:36;97349.94;;;3.99;91.63
34185;BME280;20454;48.100;11.776;2023-02-13T12:00:41;97344.19;;;4.01;91.12
34185;BME280;20454;48.100;11.776;2023-02-13T12:03:27;97347.94;;;4.06;91.71
34185;BME280;20454;48.100;11.776;2023-02-13T12:08:33;97345.78;;;4.08;91.16
34185;BME280;20454;48.100;11.776;2023-02-13T12:11:00;97341.56;;;4.06;90.22
34185;BME280;20454;48.100;11.776;2023-02-13T12:13:34;97342.41;;;4.06;91.50
34185;BME280;20454;48.100;11.776;2023-02-13T12:16:06;97339.19;;;4.09;91.64
34185;BME280;20454;48.100;11.776;2023-02-13T12:18:40;97334.91;;;4.13;91.11
34185;BME280;20454;48.100;11.776;2023-02-13T12:27:15;97326.88;;;4.23;91.39
34185;BME280;20454;48.100;11.776;2023-02-13T12:29:52;97321.50;;;4.28;91.52
34185;BME280;20454;48.100;11.776;2023-02-13T12:32:58;97316.34;;;4.32;90.99
34185;BME280;20454;48.100;11.776;2023-02-13T12:38:39;97306.41;;;4.31;90.82
34185;BME280;20454;48.100;11.776;2023-02-13T12:41:21;97312.88;;;4.36;90.53
34185;BME280;20454;48.100;11.776;2023-02-13T12:54:35;97294.06;;;4.33;90.01
34185;BME280;20454;48.100;11.776;2023-02-13T12:57:37;97305.47;;;4.37;90.20
34185;BME280;20454;48.100;11.776;2023-02-13T13:00:23;97295.53;;;4.36;90.20
34185;BME280;20454;48.100;11.776;2023-02-13T13:03:27;97295.25;;;4.37;90.06
34185;BME280;20454;48.100;11.776;2023-02-13T13:06:09;97295.63;;;4.41;90.82
34185;BME280;20454;48.100;11.776;2023-02-13T13:12:01;97299.34;;;4.46;89.93
34185;BME280;20454;48.100;11.776;2023-02-13T13:14:43;97297.66;;;4.45;89.56
34185;BME280;20454;48.100;11.776;2023-02-13T13:17:32;97300.88;;;4.53;89.33
34185;BME280;20454;48.100;11.776;2023-02-13T13:22:56;97286.63;;;4.45;89.90
34185;BME280;20454;48.100;11.776;2023-02-13T13:27:56;97298.00;;;4.48;89.47
34185;BME280;20454;48.100;11.776;2023-02-13T13:30:26;97287.72;;;4.44;89.13
34185;BME280;20454;48.100;11.776;2023-02-13T13:32:59;97295.03;;;4.39;90.01
34185;BME280;20454;48.100;11.776;2023-02-13T13:35:27;97294.31;;;4.43;90.36
34185;BME280;20454;48.100;11.776;2023-02-13T13:40:45;97309.16;;;4.42;89.57
34185;BME280;20454;48.100;11.776;2023-02-13T13:46:13;97303.78;;;4.47;90.58
34185;BME280;20454;48.100;11.776;2023-02-13T13:48:59;97293.34;;;4.49;90.46
34185;BME280;20454;48.100;11.776;2023-02-13T13:51:31;97292.84;;;4.52;90.34
34185;BME280;20454;48.100;11.776;2023-02-13T13:56:26;97292.63;;;4.53;89.99
34185;BME280;20454;48.100;11.776;2023-02-13T13:59:19;97293.22;;;4.44;89.44
34185;BME280;20454;48.100;11.776;2023-02-13T14:07:49;97291.78;;;4.42;91.06
34185;BME280;20454;48.100;11.776;2023-02-13T14:12:58;97286.28;;;4.42;90.73
34185;BME280;20454;48.100;11.776;2023-02-13T14:15:50;97290.00;;;4.47;90.62
34185;BME280;20454;48.100;11.776;2023-02-13T14:18:19;97291.44;;;4.50;90.07
34185;BME280;20454;48.100;11.776;2023-02-13T14:23:34;97294.91;;;4.57;89.88
34185;BME280;20454;48.100;11.776;2023-02-13T14:31:16;97292.16;;;4.57;89.36
34185;BME280;20454;48.100;11.776;2023-02-13T14:34:38;97288.78;;;4.54;89.39
34185;BME280;20454;48.100;11.776;2023-02-13T14:36:45;97277.41;;;4.51;88.79
34185;BME280;20454;48.100;11.776;2023-02-13T14:44:34;97284.13;;;4.44;88.76
34185;BME280;20454;48.100;11.776;2023-02-13T14:49:42;97289.38;;;4.34;88.61
34185;BME280;20454;48.100;11.776;2023-02-13T14:52:21;97288.22;;;4.30;88.95
34185;BME280;20454;48.100;11.776;2023-02-13T14:55:03;97289.38;;;4.22;89.50
34185;BME280;20454;48.100;11.776;2023-02-13T14:57:35;97281.97;;;4.23;89.78
34185;BME280;20454;48.100;11.776;2023-02-13T15:00:08;97277.78;;;4.20;90.27
34185;BME280;20454;48.100;11.776;2023-02-13T15:02:44;97273.94;;;4.21;90.02
34185;BME280;20454;48.100;11.776;2023-02-13T15:05:13;97269.88;;;4.12;90.16
34185;BME280;20454;48.100;11.776;2023-02-13T15:07:44;97281.34;;;4.09;90.56
34185;BME280;20454;48.100;11.776;2023-02-13T15:10:44;97269.25;;;3.99;90.90
34185;BME280;20454;48.100;11.776;2023-02-13T15:15:51;97267.44;;;3.93;91.41
34185;BME280;20454;48.100;11.776;2023-02-13T15:18:27;97267.72;;;3.91;91.81
34185;BME280;20454;48.100;11.776;2023-02-13T15:20:54;97277.00;;;3.90;91.89
34185;BME280;20454;48.100;11.776;2023-02-13T15:23:30;97278.56;;;3.86;92.62
34185;BME280;20454;48.100;11.776;2023-02-13T15:26:06;97281.34;;;3.86;92.34
34185;BME280;20454;48.100;11.776;2023-02-13T15:28:33;97275.81;;;3.75;92.84
34185;BME280;20454;48.100;11.776;2023-02-13T15:33:34;97275.53;;;3.65;94.23
34185;BME280;20454;48.100;11.776;2023-02-13T15:36:19;97273.97;;;3.57;94.84
34185;BME280;20454;48.100;11.776;2023-02-13T15:38:45;97271.56;;;3.49;95.24
34185;BME280;20454;48.100;11.776;2023-02-13T15:41:20;97272.88;;;3.47;95.86
34185;BME280;20454;48.100;11.776;2023-02-13T15:43:55;97273.56;;;3.42;95.92
34185;BME280;20454;48.100;11.776;2023-02-13T15:46:33;97272.56;;;3.37;96.05
34185;BME280;20454;48.100;11.776;2023-02-13T15:49:03;97277.94;;;3.32;96.26
34185;BME280;20454;48.100;11.776;2023-02-13T15:51:30;97276.75;;;3.28;96.72
34185;BME280;20454;48.100;11.776;2023-02-13T15:56:47;97273.94;;;3.16;97.31
34185;BME280;20454;48.100;11.776;2023-02-13T15:59:14;97275.47;;;3.12;97.60
34185;BME280;20454;48.100;11.776;2023-02-13T16:01:40;97288.84;;;3.09;98.17
34185;BME280;20454;48.100;11.776;2023-02-13T16:04:09;97299.25;;;3.07;98.64
34185;BME280;20454;48.100;11.776;2023-02-13T16:06:36;97301.84;;;3.02;98.91
34185;BME280;20454;48.100;11.776;2023-02-13T16:09:03;97295.38;;;2.96;98.88
34185;BME280;20454;48.100;11.776;2023-02-13T16:14:25;97295.44;;;2.90;99.30
34185;BME280;20454;48.100;11.776;2023-02-13T16:16:57;97291.09;;;2.82;99.33
34185;BME280;20454;48.100;11.776;2023-02-13T16:19:31;97293.69;;;2.77;99.58
34185;BME280;20454;48.100;11.776;2023-02-13T16:22:20;97284.25;;;2.73;99.88
34185;BME280;20454;48.100;11.776;2023-02-13T16:24:49;97287.66;;;2.69;100.00
34185;BME280;20454;48.100;11.776;2023-02-13T16:27:16;97299.97;;;2.66;100.00
34185;BME280;20454;48.100;11.776;2023-02-13T16:29:55;97295.13;;;2.62;100.00
34185;BME280;20454;48.100;11.776;2023-02-13T16:32:34;97295.59;;;2.59;100.00
34185;BME280;20454;48.100;11.776;2023-02-13T16:35:28;97292.47;;;2.55;100.00
34185;BME280;20454;48.100;11.776;2023-02-13T16:37:58;97296.97;;;2.50;100.00
34185;BME280;20454;48.100;11.776;2023-02-13T16:40:34;97310.94;;;2.48;100.00
34185;BME280;20454;48.100;11.776;2023-02-13T16:43:38;97307.13;;;2.49;100.00
34185;BME280;20454;48.100;11.776;2023-02-13T16:53:59;97301.84;;;2.30;100.00
34185;BME280;20454;48.100;11.776;2023-02-13T16:56:26;97303.34;;;2.26;100.00
34185;BME280;20454;48.100;11.776;2023-02-13T16:59:20;97311.66;;;2.19;100.00
34185;BME280;20454;48.100;11.776;2023-02-13T17:02:02;97298.88;;;2.07;100.00
34185;BME280;20454;48.100;11.776;2023-02-13T17:04:28;97301.47;;;2.02;100.00
34185;BME280;20454;48.100;11.776;2023-02-13T17:06:54;97303.84;;;1.98;100.00
34185;BME280;20454;48.100;11.776;2023-02-13T17:09:20;97303.88;;;1.92;100.00
34185;BME280;20454;48.100;11.776;2023-02-13T17:11:50;97304.72;;;1.92;100.00
34185;BME280;20454;48.100;11.776;2023-02-13T17:14:16;97304.72;;;1.92;100.00
34185;BME280;20454;48.100;11.776;2023-02-13T17:16:42;97295.88;;;1.90;100.00
34185;BME280;20454;48.100;11.776;2023-02-13T17:19:07;97311.28;;;1.91;100.00
34185;BME280;20454;48.100;11.776;2023-02-13T17:21:33;97312.97;;;1.92;100.00
34185;BME280;20454;48.100;11.776;2023-02-13T17:24:00;97322.88;;;1.93;100.00
34185;BME280;20454;48.100;11.776;2023-02-13T17:26:26;97322.00;;;1.93;100.00
34185;BME280;20454;48.100;11.776;2023-02-13T17:28:52;97322.88;;;1.93;100.00
34185;BME280;20454;48.100;11.776;2023-02-13T17:31:17;97323.94;;;1.92;100.00
34185;BME280;20454;48.100;11.776;2023-02-13T17:33:43;97322.09;;;1.86;100.00
34185;BME280;20454;48.100;11.776;2023-02-13T17:36:12;97325.91;;;1.85;100.00
34185;BME280;20454;48.100;11.776;2023-02-13T18:45:10;97307.25;;;1.38;100.00
34185;BME280;20454;48.100;11.776;2023-02-13T18:47:36;97304.28;;;1.40;100.00
34185;BME280;20454;48.100;11.776;2023-02-13T18:50:02;97316.72;;;1.42;100.00
34185;BME280;20454;48.100;11.776;2023-02-13T18:52:28;97308.50;;;1.42;100.00
34185;BME280;20454;48.100;11.776;2023-02-13T18:54:54;97305.97;;;1.41;100.00
34185;BME280;20454;48.100;11.776;2023-02-13T18:57:20;97299.88;;;1.39;100.00
34185;BME280;20454;48.100;11.776;2023-02-13T18:59:46;97311.28;;;1.36;100.00
34185;BME280;20454;48.100;11.776;2023-02-13T19:02:12;97304.97;;;1.35;100.00
34185;BME280;20454;48.100;11.776;2023-02-13T19:04:37;97307.31;;;1.32;100.00
34185;BME280;20454;48.100;11.776;2023-02-13T19:07:03;97311.47;;;1.34;100.00
34185;BME280;20454;48.100;11.776;2023-02-13T19:09:29;97315.53;;;1.32;100.00
34185;BME280;20454;48.100;11.776;2023-02-13T19:11:55;97318.69;;;1.29;100.00
34185;BME280;20454;48.100;11.776;2023-02-13T19:14:20;97319.53;;;1.29;100.00
34185;BME280;20454;48.100;11.776;2023-02-13T19:16:47;97320.59;;;1.28;100.00
34185;BME280;20454;48.100;11.776;2023-02-13T19:19:12;97318.03;;;1.33;100.00
34185;BME280;20454;48.100;11.776;2023-02-13T19:21:38;97310.69;;;1.27;100.00
34185;BME280;20454;48.100;11.776;2023-02-13T19:24:06;97307.94;;;1.27;100.00
34185;BME280;20454;48.100;11.776;2023-02-13T19:26:33;97312.59;;;1.27;100.00
34185;BME280;20454;48.100;11.776;2023-02-13T19:28:59;97308.19;;;1.26;100.00
34185;BME280;20454;48.100;11.776;2023-02-13T19:31:27;97309.66;;;1.28;100.00
34185;BME280;20454;48.100;11.776;2023-02-13T19:33:53;97301.19;;;1.30;100.00
34185;BME280;20454;48.100;11.776;2023-02-13T19:36:22;97298.44;;;1.30;100.00
34185;BME280;20454;48.100;11.776;2023-02-13T19:38:55;97295.09;;;1.28;100.00
34185;BME280;20454;48.100;11.776;2023-02-13T19:41:21;97302.03;;;1.30;100.00
34185;BME280;20454;48.100;11.776;2023-02-13T19:43:48;97305.84;;;1.29;100.00
34185;BME280;20454;48.100;11.776;2023-02-13T19:46:23;97310.25;;;1.30;100.00
34185;BME280;20454;48.100;11.776;2023-02-13T19:48:49;97298.44;;;1.30;100.00
34185;BME280;20454;48.100;11.776;2023-02-13T19:51:18;97296.97;;;1.27;100.00
34185;BME280;20454;48.100;11.776;2023-02-13T19:53:44;97303.38;;;1.21;100.00
34185;BME280;20454;48.100;11.776;2023-02-13T19:56:10;97302.50;;;1.21;100.00
34185;BME280;20454;48.100;11.776;2023-02-13T19:58:36;97299.16;;;1.19;100.00
34185;BME280;20454;48.100;11.776;2023-02-13T20:01:13;97307.50;;;1.30;100.00
34185;BME280;20454;48.100;11.776;2023-02-13T20:03:40;97301.03;;;1.18;100.00
34185;BME280;20454;48.100;11.776;2023-02-13T20:06:09;97308.66;;;1.16;100.00
34185;BME280;20454;48.100;11.776;2023-02-13T20:08:35;97315.59;;;1.19;100.00
34185;BME280;20454;48.100;11.776;2023-02-13T20:11:01;97314.97;;;1.17;100.00
34185;BME280;20454;48.100;11.776;2023-02-13T20:13:27;97309.53;;;1.10;100.00